createdAt,value
2023-01-27T00:00:36.902Z,84743.22
2023-01-27T00:03:03.852Z,84708.47
2023-01-27T00:05:30.760Z,84735.75
2023-01-27T00:07:58.796Z,84751.34
2023-01-27T00:10:26.681Z,84721.41
2023-01-27T00:13:12.174Z,84758.91
2023-01-27T00:15:39.565Z,84737.75
2023-01-27T00:18:06.776Z,84747.28
2023-01-27T00:20:52.465Z,84679.19
2023-01-27T00:23:41.117Z,84708.47
2023-01-27T00:26:10.952Z,84748.00
2023-01-27T00:28:41.197Z,84754.16
2023-01-27T00:31:28.980Z,84763.72
2023-01-27T00:34:02.152Z,84766.44
2023-01-27T00:36:30.092Z,84756.84
2023-01-27T00:38:57.859Z,84703.72
2023-01-27T00:41:24.914Z,84716.69
2023-01-27T00:43:55.585Z,84696.22
2023-01-27T00:46:23.984Z,84677.16
2023-01-27T00:48:52.074Z,84756.16
2023-01-27T00:51:19.574Z,84742.50
2023-01-27T00:53:46.879Z,84735.75
2023-01-27T00:56:13.868Z,84718.03
2023-01-27T00:58:42.345Z,84707.09
2023-01-27T01:01:12.635Z,84754.13
2023-01-27T01:03:40.165Z,84754.81
2023-01-27T01:06:09.972Z,84738.41
2023-01-27T01:08:38.205Z,84711.22
2023-01-27T01:11:07.862Z,84737.13
2023-01-27T01:13:35.447Z,84766.44
2023-01-27T01:16:14.825Z,84645.22
2023-01-27T01:18:43.052Z,84763.72
2023-01-27T01:21:11.010Z,84723.53
2023-01-27T01:23:39.817Z,84692.16
2023-01-27T01:26:06.831Z,84694.19
2023-01-27T01:28:33.854Z,84746.59
2023-01-27T01:31:09.027Z,84738.44
2023-01-27T01:33:37.133Z,84675.13
2023-01-27T01:36:12.716Z,84696.22
2023-01-27T01:38:39.741Z,84702.31
2023-01-27T01:41:20.276Z,84648.47
2023-01-27T01:43:48.116Z,84662.78
2023-01-27T01:46:15.384Z,84679.78
2023-01-27T01:48:51.316Z,84711.78
2023-01-27T01:51:41.977Z,84709.72
2023-01-27T01:54:19.538Z,84670.25
2023-01-27T01:57:32.583Z,84700.88
2023-01-27T02:00:02.062Z,84689.22
2023-01-27T02:02:30.293Z,84619.81
2023-01-27T02:05:22.249Z,84683.06
2023-01-27T02:08:01.194Z,84682.38
2023-01-27T02:10:29.132Z,84673.59
2023-01-27T02:12:56.445Z,84682.38
2023-01-27T02:15:23.519Z,84634.75
2023-01-27T02:17:53.165Z,84554.47
2023-01-27T02:20:41.500Z,84642.88
2023-01-27T02:23:24.954Z,84637.41
2023-01-27T02:26:10.836Z,84659.16
2023-01-27T02:28:37.982Z,84668.03
2023-01-27T02:31:05.316Z,84638.13
2023-01-27T02:33:33.896Z,84663.28
2023-01-27T02:36:13.438Z,84638.84
2023-01-27T02:38:46.022Z,84666.00
2023-01-27T02:41:27.853Z,84639.47
2023-01-27T02:43:55.285Z,84643.50
2023-01-27T02:46:22.329Z,84648.34
2023-01-27T02:48:49.578Z,84671.47
2023-01-27T02:51:17.354Z,84621.06
2023-01-27T02:53:45.130Z,84674.19
2023-01-27T02:56:12.684Z,84664.56
2023-01-27T02:58:39.682Z,84666.63
2023-01-27T03:01:11.243Z,84661.84
2023-01-27T03:03:47.256Z,84630.53
2023-01-27T03:06:19.473Z,84577.53
2023-01-27T03:08:46.493Z,84648.31
2023-01-27T03:11:35.381Z,84657.13
2023-01-27T03:14:03.492Z,84631.91
2023-01-27T03:16:49.173Z,84655.06
2023-01-27T03:19:16.993Z,84660.56
2023-01-27T03:21:45.431Z,84649.59
2023-01-27T03:24:12.713Z,84635.31
2023-01-27T03:26:39.837Z,84657.78
2023-01-27T03:29:27.250Z,84629.91
2023-01-27T03:31:54.296Z,84631.94
2023-01-27T03:34:21.582Z,84671.44
2023-01-27T03:37:09.892Z,84630.69
2023-01-27T03:39:55.592Z,84663.25
2023-01-27T03:42:41.675Z,84615.66
2023-01-27T03:45:27.649Z,84661.22
2023-01-27T03:47:54.527Z,84630.59
2023-01-27T03:50:31.271Z,84674.88
2023-01-27T03:53:04.155Z,84619.75
2023-01-27T03:55:32.479Z,84661.88
2023-01-27T03:58:18.172Z,84595.19
2023-01-27T04:01:06.453Z,84650.38
2023-01-27T04:03:53.718Z,84644.19
2023-01-27T04:06:44.546Z,84637.34
2023-01-27T04:09:13.261Z,84614.25
2023-01-27T04:11:55.536Z,84592.50
2023-01-27T04:14:23.528Z,84644.19
2023-01-27T04:16:54.818Z,84640.03
2023-01-27T04:19:21.945Z,84642.09
2023-01-27T04:21:49.473Z,84627.75
2023-01-27T04:24:16.970Z,84631.09
2023-01-27T04:26:44.965Z,84583.50
2023-01-27T04:29:13.855Z,84622.28
2023-01-27T04:31:41.309Z,84592.41
2023-01-27T04:34:09.043Z,84596.44
2023-01-27T04:36:36.007Z,84577.38
2023-01-27T04:39:03.063Z,84585.50
2023-01-27T04:41:30.123Z,84618.91
2023-01-27T04:43:56.990Z,84582.25
2023-01-27T04:46:23.946Z,84646.19
2023-01-27T04:48:50.963Z,84633.25
2023-01-27T04:51:17.843Z,84635.94
2023-01-27T04:53:44.805Z,84604.69
2023-01-27T04:56:29.816Z,84593.75
2023-01-27T04:59:04.904Z,84656.47
2023-01-27T05:01:32.149Z,84668.09
2023-01-27T05:03:59.191Z,84663.25
2023-01-27T05:06:27.152Z,84645.56
2023-01-27T05:08:54.246Z,84661.09
2023-01-27T05:11:21.786Z,84656.34
2023-01-27T05:13:49.036Z,84642.78
2023-01-27T05:16:21.547Z,84657.78
2023-01-27T05:18:50.669Z,84663.19
2023-01-27T05:21:21.468Z,84596.56
2023-01-27T05:23:48.978Z,84640.75
2023-01-27T05:26:19.215Z,84658.38
2023-01-27T05:28:47.811Z,84651.59
2023-01-27T05:31:20.494Z,84642.06
2023-01-27T05:33:49.753Z,84664.53
2023-01-27T05:36:18.841Z,84669.28
2023-01-27T05:38:46.120Z,84640.03
2023-01-27T05:41:14.731Z,84658.41
2023-01-27T05:43:43.724Z,84626.41
2023-01-27T05:46:16.557Z,84656.97
2023-01-27T05:48:46.934Z,84663.13
2023-01-27T05:51:15.460Z,84623.69
2023-01-27T05:53:43.830Z,84625.00
2023-01-27T05:56:13.819Z,84650.88
2023-01-27T05:58:41.216Z,84629.84
2023-01-27T06:01:28.861Z,84656.31
2023-01-27T06:03:56.353Z,84658.34
2023-01-27T06:06:25.024Z,84602.59
2023-01-27T06:08:52.581Z,84618.78
2023-01-27T06:11:21.566Z,84582.78
2023-01-27T06:13:48.843Z,84645.41
2023-01-27T06:16:18.364Z,84625.00
2023-01-27T06:18:46.238Z,84621.56
2023-01-27T06:21:14.858Z,84599.09
2023-01-27T06:23:42.333Z,84666.44
2023-01-27T06:26:16.450Z,84669.22
2023-01-27T06:28:43.911Z,84593.06
2023-01-27T06:31:12.294Z,84676.75
2023-01-27T06:33:40.060Z,84627.72
2023-01-27T06:36:14.266Z,84641.31
2023-01-27T06:38:41.948Z,84636.63
2023-01-27T06:41:09.082Z,84678.09
2023-01-27T06:43:36.157Z,84669.91
2023-01-27T06:46:05.713Z,84675.31
2023-01-27T06:48:34.077Z,84663.72
2023-01-27T06:51:01.292Z,84663.00
2023-01-27T06:53:28.645Z,84584.13
2023-01-27T06:55:58.259Z,84660.28
2023-01-27T06:58:26.024Z,84570.53
2023-01-27T07:00:53.927Z,84611.31
2023-01-27T07:03:21.864Z,84662.84
2023-01-27T07:05:48.821Z,84603.78
2023-01-27T07:08:15.904Z,84620.69
2023-01-27T07:10:42.813Z,84665.66
2023-01-27T07:13:12.286Z,84686.09
2023-01-27T07:15:39.708Z,84646.63
2023-01-27T07:18:07.168Z,84652.66
2023-01-27T07:20:34.572Z,84658.84
2023-01-27T07:23:03.684Z,84665.00
2023-01-27T07:25:31.510Z,84657.50
2023-01-27T07:27:59.319Z,84654.75
2023-01-27T07:30:27.656Z,84612.56
2023-01-27T07:32:55.619Z,84685.22
2023-01-27T07:35:23.548Z,84621.25
2023-01-27T07:37:50.580Z,84620.53
2023-01-27T07:40:18.621Z,84593.22
2023-01-27T07:42:45.545Z,84604.06
2023-01-27T07:45:12.618Z,84652.84
2023-01-27T07:47:40.172Z,84624.31
2023-01-27T07:50:08.351Z,84654.81
2023-01-27T07:52:35.291Z,84620.09
2023-01-27T07:55:02.534Z,84658.09
2023-01-27T07:57:29.532Z,84662.13
2023-01-27T07:59:56.836Z,84649.88
2023-01-27T08:02:24.729Z,84585.25
2023-01-27T08:04:53.634Z,84667.44
2023-01-27T08:07:21.471Z,84633.47
2023-01-27T08:09:48.962Z,84625.22
2023-01-27T08:12:16.146Z,84677.50
2023-01-27T08:14:43.133Z,84631.22
2023-01-27T08:17:10.238Z,84602.72
2023-01-27T08:19:37.200Z,84608.69
2023-01-27T08:22:04.302Z,84608.69
2023-01-27T08:24:31.241Z,84597.84
2023-01-27T08:26:58.307Z,84647.28
2023-01-27T08:29:25.307Z,84649.22
2023-01-27T08:31:52.297Z,84634.91
2023-01-27T08:34:19.540Z,84598.84
2023-01-27T08:36:46.645Z,84662.72
2023-01-27T08:39:13.775Z,84590.69
2023-01-27T08:41:40.818Z,84665.38
2023-01-27T08:44:08.013Z,84687.28
2023-01-27T08:46:35.113Z,84658.38
2023-01-27T08:49:02.461Z,84650.31
2023-01-27T08:51:30.691Z,84578.28
2023-01-27T08:53:57.723Z,84626.59
2023-01-27T08:56:24.818Z,84561.94
2023-01-27T09:07:25.664Z,84592.56
2023-01-27T09:10:04.201Z,84569.50
2023-01-27T09:12:39.749Z,84637.53
2023-01-27T09:15:07.208Z,84643.53
2023-01-27T09:17:34.234Z,84636.16
2023-01-27T09:20:01.224Z,84633.34
2023-01-27T09:22:31.490Z,84565.84
2023-01-27T09:25:01.228Z,84653.81
2023-01-27T09:27:38.853Z,84632.09
2023-01-27T09:30:07.656Z,84630.66
2023-01-27T09:32:34.566Z,84627.81
2023-01-27T09:35:01.584Z,84644.13
2023-01-27T09:37:28.839Z,84659.03
2023-01-27T09:40:02.651Z,84623.75
2023-01-27T09:42:38.760Z,84648.00
2023-01-27T09:45:30.567Z,84641.06
2023-01-27T09:48:09.446Z,84641.00
2023-01-27T09:50:45.633Z,84645.00
2023-01-27T09:53:39.161Z,84642.19
2023-01-27T09:56:12.342Z,84609.56
2023-01-27T09:58:39.354Z,84644.78
2023-01-27T10:01:21.878Z,84598.59
2023-01-27T10:04:14.661Z,84635.75
2023-01-27T10:07:05.005Z,84637.84
2023-01-27T10:09:54.858Z,84635.03
2023-01-27T10:12:46.117Z,84632.97
2023-01-27T10:15:30.073Z,84580.59
2023-01-27T10:18:08.823Z,84614.31
2023-01-27T10:21:03.095Z,84573.63
2023-01-27T10:24:07.556Z,84583.88
2023-01-27T10:26:51.192Z,84629.31
2023-01-27T10:29:26.407Z,84605.31
2023-01-27T10:31:59.233Z,84605.97
2023-01-27T10:34:34.514Z,84609.44
2023-01-27T10:37:20.236Z,84594.03
2023-01-27T10:40:14.933Z,84595.25
2023-01-27T10:43:13.162Z,84599.19
2023-01-27T10:45:47.900Z,84601.91
2023-01-27T10:48:25.807Z,84531.38
2023-01-27T10:51:02.041Z,84597.09
2023-01-27T10:53:31.932Z,84586.78
2023-01-27T10:56:03.231Z,84593.63
2023-01-27T10:58:42.481Z,84586.72
2023-01-27T11:01:22.805Z,84577.22
2023-01-27T11:03:59.695Z,84549.38
2023-01-27T11:06:35.618Z,84520.91
2023-01-27T11:09:10.917Z,84569.84
2023-01-27T11:11:44.739Z,84548.72
2023-01-27T11:14:17.472Z,84572.28
2023-01-27T11:16:49.728Z,84570.91
2023-01-27T11:19:46.412Z,84513.13
2023-01-27T11:22:24.462Z,84521.16
2023-01-27T11:25:07.593Z,84569.28
2023-01-27T11:28:04.150Z,84574.06
2023-01-27T11:30:47.356Z,84517.00
2023-01-27T11:33:26.220Z,84500.81
2023-01-27T11:35:54.196Z,84545.38
2023-01-27T11:38:23.224Z,84534.41
2023-01-27T11:40:53.318Z,84552.03
2023-01-27T11:43:25.050Z,84516.78
2023-01-27T11:45:58.754Z,84541.56
2023-01-27T11:48:41.345Z,84548.31
2023-01-27T11:51:17.426Z,84549.72
2023-01-27T11:53:45.341Z,84488.13
2023-01-27T11:56:18.533Z,84557.84
2023-01-27T11:59:20.234Z,84537.44
2023-01-27T12:01:53.628Z,84454.09
2023-01-27T12:04:38.865Z,84548.22
2023-01-27T12:07:38.077Z,84476.72
2023-01-27T12:10:30.153Z,84521.97
2023-01-27T12:12:59.177Z,84477.31
2023-01-27T12:15:31.415Z,84540.88
2023-01-27T12:18:05.457Z,84492.19
2023-01-27T12:21:00.506Z,84528.66
2023-01-27T12:23:31.752Z,84486.75
2023-01-27T12:26:02.122Z,84542.97
2023-01-27T12:28:36.255Z,84536.78
2023-01-27T12:31:10.056Z,84540.97
2023-01-27T12:33:40.696Z,84543.72
2023-01-27T12:36:22.815Z,84534.25
2023-01-27T12:39:00.375Z,84540.34
2023-01-27T12:41:31.109Z,84490.13
2023-01-27T12:44:07.798Z,84513.84
2023-01-27T12:46:34.828Z,84444.06
2023-01-27T12:49:10.461Z,84507.81
2023-01-27T12:51:45.124Z,84528.19
2023-01-27T12:54:32.242Z,84485.53
2023-01-27T12:57:05.755Z,84530.25
2023-01-27T12:59:34.525Z,84534.31
2023-01-27T13:02:17.811Z,84430.03
2023-01-27T13:04:52.121Z,84470.59
2023-01-27T13:07:24.277Z,84520.78
2023-01-27T13:10:04.699Z,84507.22
2023-01-27T13:12:47.759Z,84510.25
2023-01-27T13:15:16.968Z,84528.41
2023-01-27T13:17:48.244Z,84542.06
2023-01-27T13:20:18.240Z,84534.56
2023-01-27T13:22:53.430Z,84526.50
2023-01-27T13:25:28.711Z,84487.38
2023-01-27T13:27:59.583Z,84508.31
2023-01-27T13:30:30.613Z,84502.19
2023-01-27T13:33:08.613Z,84550.34
2023-01-27T13:35:42.302Z,84543.13
2023-01-27T13:38:37.457Z,84528.09
2023-01-27T13:41:15.445Z,84547.78
2023-01-27T13:43:52.427Z,84520.13
2023-01-27T13:46:27.391Z,84522.09
2023-01-27T13:48:57.330Z,84550.00
2023-01-27T13:51:28.605Z,84520.25
2023-01-27T13:54:01.699Z,84516.13
2023-01-27T13:57:12.698Z,84547.34
2023-01-27T13:59:50.532Z,84545.97
2023-01-27T14:03:19.724Z,84538.50
2023-01-27T14:06:02.295Z,84539.19
2023-01-27T14:08:43.605Z,84531.19
2023-01-27T14:11:39.089Z,84542.69
2023-01-27T14:14:09.257Z,84537.88
2023-01-27T14:17:03.251Z,84540.66
2023-01-27T14:19:42.579Z,84544.78
2023-01-27T14:22:12.276Z,84544.78
2023-01-27T14:25:10.052Z,84550.28
2023-01-27T14:27:46.940Z,84523.84
2023-01-27T14:30:21.634Z,84546.25
2023-01-27T14:33:06.900Z,84543.50
2023-01-27T14:35:58.819Z,84494.91
2023-01-27T14:38:38.289Z,84496.28
2023-01-27T14:41:27.733Z,84546.44
2023-01-27T14:44:01.722Z,84538.38
2023-01-27T14:46:48.272Z,84545.09
2023-01-27T14:49:15.231Z,84545.84
2023-01-27T14:51:58.923Z,84520.75
2023-01-27T14:54:58.207Z,84527.66
2023-01-27T14:57:36.468Z,84527.72
2023-01-27T15:00:39.342Z,84556.25
2023-01-27T15:03:35.156Z,84562.47
2023-01-27T15:06:14.373Z,84557.69
2023-01-27T15:08:43.918Z,84561.88
2023-01-27T15:11:33.657Z,84570.78
2023-01-27T15:14:38.193Z,84572.88
2023-01-27T15:17:52.806Z,84574.28
2023-01-27T15:20:30.764Z,84575.09
2023-01-27T15:23:06.961Z,84571.09
2023-01-27T15:25:44.795Z,84531.13
2023-01-27T15:28:18.271Z,84573.22
2023-01-27T15:31:08.687Z,84577.94
2023-01-27T15:34:03.700Z,84580.19
2023-01-27T15:36:33.979Z,84552.44
2023-01-27T15:39:10.030Z,84581.66
2023-01-27T15:41:56.440Z,84534.78
2023-01-27T15:44:38.241Z,84583.06
2023-01-27T15:47:08.250Z,84589.91
2023-01-27T15:49:47.477Z,84569.50
2023-01-27T15:52:31.921Z,84565.47
2023-01-27T15:55:03.526Z,84566.84
2023-01-27T15:57:40.326Z,84574.34
2023-01-27T16:00:23.803Z,84588.63
2023-01-27T16:02:54.507Z,84564.22
2023-01-27T16:05:26.209Z,84529.69
2023-01-27T16:07:55.710Z,84489.69
2023-01-27T16:10:27.947Z,84552.19
2023-01-27T16:13:16.250Z,84579.25
2023-01-27T16:15:44.557Z,84544.09
2023-01-27T16:18:11.623Z,84597.03
2023-01-27T16:21:01.332Z,84590.81
2023-01-27T16:24:01.817Z,84592.84
2023-01-27T16:26:40.162Z,84598.44
2023-01-27T16:29:31.791Z,84599.09
2023-01-27T16:32:06.219Z,84586.91
2023-01-27T16:34:47.723Z,84587.59
2023-01-27T16:37:24.122Z,84572.75
2023-01-27T16:39:58.685Z,84601.88
2023-01-27T16:42:34.395Z,84596.59
2023-01-27T16:45:06.676Z,84568.09
2023-01-27T16:47:42.752Z,84589.88
2023-01-27T16:50:33.128Z,84610.94
2023-01-27T16:53:00.630Z,84614.31
2023-01-27T16:55:27.603Z,84596.00
2023-01-27T16:57:56.618Z,84613.66
2023-01-27T17:00:28.402Z,84589.84
2023-01-27T17:02:59.449Z,84617.84
2023-01-27T17:05:29.429Z,84596.84
2023-01-27T17:08:20.968Z,84627.47
2023-01-27T17:11:04.285Z,84553.41
2023-01-27T17:13:34.704Z,84620.56
2023-01-27T17:16:06.808Z,84606.31
2023-01-27T17:18:50.923Z,84532.41
2023-01-27T17:21:58.613Z,84620.78
2023-01-27T17:24:30.522Z,84623.53
2023-01-27T17:27:05.922Z,84632.41
2023-01-27T17:29:39.950Z,84633.13
2023-01-27T17:32:29.385Z,84594.44
2023-01-27T17:34:59.247Z,84414.47
2023-01-27T17:37:26.766Z,84613.38
2023-01-27T17:40:03.725Z,84637.84
2023-01-27T17:42:33.424Z,84601.97
2023-01-27T17:45:30.045Z,84635.94
2023-01-27T17:48:01.737Z,84637.91
2023-01-27T17:50:34.218Z,84614.06
2023-01-27T17:53:01.312Z,84565.94
2023-01-27T17:55:31.221Z,84570.03
2023-01-27T17:58:05.310Z,84593.75
2023-01-27T18:00:38.342Z,84646.09
2023-01-27T18:03:13.624Z,84584.25
2023-01-27T18:05:45.077Z,84635.13
2023-01-27T18:08:12.382Z,84600.69
2023-01-27T18:10:46.023Z,84616.88
2023-01-27T18:13:18.736Z,84644.06
2023-01-27T18:16:00.785Z,84643.34
2023-01-27T18:18:33.357Z,84626.97
2023-01-27T18:21:03.442Z,84644.63
2023-01-27T18:23:55.839Z,84588.38
2023-01-27T18:26:37.801Z,84651.50
2023-01-27T18:29:17.540Z,84649.44
2023-01-27T18:31:48.421Z,84653.66
2023-01-27T18:34:24.378Z,84656.41
2023-01-27T18:36:54.857Z,84612.94
2023-01-27T18:39:55.444Z,84622.44
2023-01-27T19:01:36.557Z,84642.47
2023-01-27T19:47:13.474Z,84662.41
2023-01-27T19:49:41.345Z,84684.22
2023-01-27T19:52:10.133Z,84676.00
2023-01-27T19:54:37.344Z,84678.66
2023-01-27T19:57:05.144Z,84678.72
2023-01-27T19:59:32.398Z,84650.88
2023-01-27T20:01:59.414Z,84623.03
2023-01-27T20:04:26.921Z,84633.25
2023-01-27T20:06:53.829Z,84571.28
2023-01-27T20:09:20.788Z,84631.03
2023-01-27T20:11:47.842Z,84671.94
2023-01-27T20:14:18.865Z,84697.91
2023-01-27T20:16:47.191Z,84643.47
2023-01-27T20:19:15.407Z,84653.63
2023-01-27T20:21:43.572Z,84678.78
2023-01-27T20:24:15.733Z,84658.44
2023-01-27T20:26:42.816Z,84695.09
2023-01-27T20:29:09.715Z,84665.19
2023-01-27T20:31:39.016Z,84670.63
2023-01-27T20:34:06.480Z,84701.22
2023-01-27T20:36:33.641Z,84646.06
2023-01-27T20:39:00.728Z,84661.03
2023-01-27T20:41:27.657Z,84644.75
2023-01-27T20:44:00.661Z,84709.44
2023-01-27T20:46:28.969Z,84711.53
2023-01-27T20:48:56.777Z,84715.72
2023-01-27T20:51:23.743Z,84692.66
2023-01-27T20:53:50.659Z,84718.44
2023-01-27T20:56:20.903Z,84696.66
2023-01-27T20:58:48.767Z,84721.22
2023-01-27T21:01:20.994Z,84692.56
2023-01-27T21:03:48.648Z,84695.19
2023-01-27T21:06:17.856Z,84679.56
2023-01-27T21:08:45.181Z,84723.75
2023-01-27T21:11:13.231Z,84704.66
2023-01-27T21:13:40.411Z,84671.41
2023-01-27T21:16:08.186Z,84691.16
2023-01-27T21:18:40.489Z,84700.66
2023-01-27T21:21:07.661Z,84718.34
2023-01-27T21:23:34.803Z,84734.63
2023-01-27T21:26:09.301Z,84726.41
2023-01-27T21:28:36.643Z,84678.94
2023-01-27T21:31:12.384Z,84694.50
2023-01-27T21:33:40.093Z,84696.72
2023-01-27T21:36:10.613Z,84702.16
2023-01-27T21:38:39.007Z,84711.63
2023-01-27T21:41:35.494Z,84730.75
2023-01-27T21:44:21.480Z,84737.50
2023-01-27T21:46:48.619Z,84699.38
2023-01-27T21:49:16.092Z,84737.53
2023-01-27T21:51:43.212Z,84695.41
2023-01-27T21:54:10.310Z,84717.16
2023-01-27T21:56:37.296Z,84671.56
2023-01-27T21:59:04.779Z,84737.47
2023-01-27T22:01:31.893Z,84690.56
2023-01-27T22:03:58.993Z,84670.84
2023-01-27T22:06:26.021Z,84738.09
2023-01-27T22:08:53.004Z,84715.00
2023-01-27T22:11:20.282Z,84738.88
2023-01-27T22:13:47.245Z,84695.97
2023-01-27T22:16:18.796Z,84730.78
2023-01-27T22:18:45.778Z,84684.47
2023-01-27T22:21:12.733Z,84732.06
2023-01-27T22:23:39.673Z,84733.41
2023-01-27T22:26:08.185Z,84730.81
2023-01-27T22:28:35.173Z,84678.44
2023-01-27T22:31:02.264Z,84740.44
2023-01-27T22:33:29.352Z,84728.09
2023-01-27T22:36:21.191Z,84727.41
2023-01-27T22:38:48.595Z,84677.06
2023-01-27T22:44:35.571Z,84725.41
2023-01-27T22:47:02.602Z,84748.56
2023-01-27T22:49:29.622Z,84710.50
2023-01-27T22:51:56.576Z,84736.97
2023-01-27T22:54:23.535Z,84752.63
2023-01-27T22:56:50.551Z,84757.47
2023-01-27T22:59:17.481Z,84716.50
2023-01-27T23:01:44.383Z,84681.88
2023-01-27T23:04:12.686Z,84673.66
2023-01-27T23:06:39.634Z,84734.91
2023-01-27T23:09:06.500Z,84692.72
2023-01-27T23:11:33.459Z,84752.66
2023-01-27T23:14:01.595Z,84748.50
2023-01-27T23:16:28.624Z,84720.53
2023-01-27T23:18:55.624Z,84745.09
2023-01-27T23:21:22.625Z,84723.31
2023-01-27T23:23:51.025Z,84726.75
2023-01-27T23:26:18.171Z,84702.22
2023-01-27T23:28:45.164Z,84721.25
2023-01-27T23:31:13.340Z,84750.53
2023-01-27T23:33:42.217Z,84745.72
2023-01-27T23:36:11.097Z,84751.16
2023-01-27T23:38:38.454Z,84724.00
2023-01-27T23:41:13.732Z,84745.75
2023-01-27T23:43:40.907Z,84761.47
2023-01-27T23:46:08.048Z,84749.84
2023-01-27T23:48:35.175Z,84755.31
2023-01-27T23:51:13.615Z,84744.47
2023-01-27T23:53:40.743Z,84758.00
2023-01-27T23:56:11.572Z,84681.25
2023-01-27T23:58:38.641Z,84692.16
